Wetterdaten für den Flughafen Lübeck Blankensee


ADDS - METARS form results Aviation Digital Data Service (ADDS) Output produced by METARs form (2320 UTC 24 February 2020)
found at http://www.aviationweather.gov/metar/data/
 
EDHL 241850Z 13009KT 3400 -RA BKN004 OVC007 01/01 Q1000
TAF AMD EDHL 241836Z 2418/2421 16012KT 6000 BKN008 TEMPO 2418/2420 1200 SN BKN003 TEMPO 2420/2421 4000 RADZ BKN004

Nord: Hamburg, Lübeck
Ost: Schwerin, Rostock
Süd: Hannover
West: Bremen, Nordhloz

 

Copyright © 2016 Flugschule Hohensee